Project City, California
Current Conditions -  °F | °C
As of 12:38 AM on Friday 28 Nov 2014 (Local Time) from KRDD Reporting Station
Haze Haze  
Wind Chill: 44°   Ceiling: Unl
Heat Index: 44°   Visibility: 5mi
Dew Point: 42°   Wind: 0mph
Humidity: 93%   Direction: NA
Pressure: 30.04"   Gusts: NA
Location:  40.6814°N, 122.35°W
Report Text: KRDD 280838Z AUTO 00000KT 5SM BR CLR 07/06 A3004 RMK AO2 T00670056
Loading
Personal Weather Stations






























Interactive Weather Map New forecast layout! Learn more

10-Day Weather Forecast

Advertisements
Track Severe Weather on mobile